Latest Weather Observations for Giles*

IDW60801

Issued at 7:33 pm WST Wednesday 24 May 2017 (issued every 30 minutes, with the page automatically refreshed every 10 minutes)

About weather observations | Map of weather stations | Latest weather observations for WA | Other Formats
Station Details ID: 013017 Name: GILES METEOROLOGICAL OFFICE Lat: -25.03 Lon: 128.30 Height: 598.0 m
Data from the previous 72 hours. | See also: Recent months at Giles*

* Giles observations are collected in the South Australia time zone, which includes daylight saving in the summer period. Therefore, Rain since 9am value is with respect to South Australia local time.

Date/Time
WST
Temp
°C
App
Temp
°C
Dew
Point
°C
Rel
Hum
%
Delta-T
°C
Wind Press
QNH
hPa
Press
MSL
hPa
Rain since
9am
mm
Dir  Spd
km/h
Gust
km/h
Spd
kts
Gust
kts
24/07:00pm 21.6 19.3 7.5 40 7.5 E 9 11 5 6 1021.3 1019.5 0.0
24/06:30pm 21.3 19.9 9.5 47 6.5 SE 7 7 4 4 1021.1 1019.3 0.0
24/06:00pm 21.7 19.9 7.9 41 7.4 SSE 7 9 4 5 1020.9 1019.1 0.0
24/05:30pm 22.8 21.8 7.5 37 8.2 ESE 2 7 1 4 1020.4 1018.6 0.0
24/05:00pm 23.9 22.0 7.6 35 8.8 NNE 7 9 4 5 1020.2 1018.4 0.0
24/04:30pm 24.3 23.8 7.7 34 9.0 CALM 0 0 0 0 1020.0 1018.2 0.0
24/04:00pm 25.0 22.6 6.9 31 9.7 NE 9 13 5 7 1019.7 1017.9 0.0
24/03:30pm 26.1 22.6 5.3 26 10.9 N 13 17 7 9 1019.5 1017.7 0.0
24/03:00pm 26.3 22.0 5.1 25 11.1 N 17 22 9 12 1019.5 1017.7 0.0
24/02:30pm 27.0 22.6 4.8 24 11.6 N 17 22 9 12 1019.5 1017.7 0.0
24/02:00pm 26.6 22.2 4.7 24 11.4 N 17 24 9 13 1019.6 1017.8 0.0
24/01:30pm 27.5 23.5 5.1 24 11.8 N 15 22 8 12 1019.5 1017.7 0.0
24/01:00pm 27.2 22.4 4.9 24 11.7 N 19 28 10 15 1019.7 1017.9 0.0
24/12:30pm 26.7 22.3 4.9 24 11.4 NNW 17 26 9 14 1020.1 1018.3 0.0
24/12:00pm 26.8 22.0 4.4 23 11.6 N 19 28 10 15 1020.6 1018.9 0.0
24/11:30am 26.2 21.1 4.3 24 11.3 N 20 32 11 17 1021.1 1019.3 0.0
24/11:00am 25.8 21.8 4.8 26 10.9 NNE 15 24 8 13 1021.5 1019.7 0.0
24/10:30am 25.4 20.9 4.1 25 10.9 N 17 26 9 14 1021.7 1019.9 0.0
24/10:00am 24.4 21.4 5.9 30 9.7 NNE 11 17 6 9 1022.1 1020.4 0.0
24/09:30am 23.4 19.9 5.4 31 9.3 NE 13 19 7 10 1022.5 1020.8 0.0
24/09:00am 22.5 18.6 5.3 32 8.8 E 15 22 8 12 1022.8 1021.0 0.0
24/08:30am 20.4 16.4 4.8 36 7.8 E 15 20 8 11 1022.5 1020.8 0.0
24/08:00am 19.1 15.1 5.1 39 7.0 E 15 22 8 12 1022.4 1020.7 0.0
24/07:30am 15.3 12.1 5.3 51 4.9 SE 11 15 6 8 1022.2 1020.5 0.0
24/07:00am 12.5 9.3 4.9 60 3.6 SE 11 13 6 7 1022.1 1020.4 0.0
24/06:30am 10.7 7.8 4.9 67 2.7 ESE 9 11 5 6 1022.0 1020.2 0.0
24/06:00am 10.3 7.8 4.7 68 2.6 E 7 11 4 6 1021.8 1020.0 0.0
24/05:30am 10.2 6.5 4.3 67 2.7 ESE 13 17 7 9 1021.7 1019.9 0.0
24/05:00am 10.4 6.7 4.3 66 2.8 ESE 13 17 7 9 1021.4 1019.6 0.0
24/04:30am 10.7 6.9 3.9 63 3.1 E 13 19 7 10 1021.3 1019.5 0.0
24/04:00am 10.4 7.4 4.1 65 2.9 E 9 13 5 7 1021.5 1019.7 0.0
24/03:30am 10.8 7.7 3.8 62 3.2 E 9 13 5 7 1021.4 1019.6 0.0
24/03:00am 10.9 7.5 3.9 62 3.2 ESE 11 17 6 9 1021.5 1019.7 0.0
24/02:30am 11.3 7.0 3.4 58 3.6 SE 15 20 8 11 1021.5 1019.7 0.0
24/02:00am 12.2 7.5 3.2 54 4.1 SE 17 20 9 11 1021.7 1019.9 0.0
24/01:30am 12.9 8.6 3.3 52 4.4 ESE 15 17 8 9 1021.7 1019.9 0.0
24/01:00am 13.1 9.1 3.1 50 4.6 ESE 13 22 7 12 1021.9 1020.1 0.0
24/12:30am 13.3 10.2 3.6 52 4.5 ESE 9 13 5 7 1022.1 1020.4 0.0
24/12:00am 13.0 9.1 3.2 51 4.5 ESE 13 15 7 8 1022.0 1020.2 0.0
 
Date/Time
WST
Temp
°C
App
Temp
°C
Dew
Point
°C
Rel
Hum
%
Delta-T
°C
Wind Press
QNH
hPa
Press
MSL
hPa
Rain since
9am
mm
Dir  Spd
km/h
Gust
km/h
Spd
kts
Gust
kts
23/11:30pm 13.6 10.0 3.2 49 4.8 ESE 11 15 6 8 1022.3 1020.6 0.0
23/11:00pm 15.0 11.0 2.9 44 5.6 ESE 13 17 7 9 1022.5 1020.8 0.0
23/10:30pm 15.7 11.3 2.5 41 6.1 ESE 15 19 8 10 1022.8 1021.0 0.0
23/10:00pm 15.2 11.3 3.2 44 5.6 E 13 17 7 9 1022.9 1021.1 0.0
23/09:30pm 15.4 11.5 3.2 44 5.7 E 13 17 7 9 1022.8 1021.0 0.0
23/09:00pm 15.7 11.4 3.4 43 5.8 E 15 17 8 9 1022.7 1020.9 0.0
23/08:30pm 16.4 12.5 3.3 41 6.2 SE 13 19 7 10 1022.7 1020.9 0.0
23/08:00pm 16.6 12.8 3.9 42 6.1 SE 13 17 7 9 1022.5 1020.8 0.0
23/07:30pm 16.7 13.4 4.3 43 6.0 SE 11 13 6 7 1022.2 1020.5 0.0
23/07:00pm 16.8 12.7 4.4 43 6.0 SSE 15 17 8 9 1021.9 1020.1 0.0
23/06:30pm 17.6 14.0 4.8 42 6.3 SSE 13 15 7 8 1021.7 1019.9 0.0
23/06:00pm 18.5 15.3 5.0 41 6.7 S 11 13 6 7 1021.2 1019.4 0.0
23/05:30pm 19.8 16.6 5.3 38 7.3 SSE 11 13 6 7 1021.0 1019.2 0.0
23/05:00pm 21.6 18.8 5.1 34 8.4 SSE 9 11 5 6 1020.6 1018.9 0.0
23/04:30pm 23.1 20.2 4.9 30 9.3 SSE 9 11 5 6 1020.3 1018.5 0.0
23/04:00pm 24.5 21.6 4.6 27 10.2 SSE 9 13 5 7 1019.9 1018.1 0.0
23/03:30pm 24.8 21.6 3.0 24 10.9 SW 9 13 5 7 1019.8 1018.0 0.0
23/03:00pm 24.9 21.3 3.2 24 10.9 SE 11 17 6 9 1019.7 1017.9 0.0
23/02:30pm 25.7 23.2 4.0 24 11.1 NE 6 15 3 8 1019.7 1017.9 0.0
23/02:00pm 25.3 22.1 2.9 23 11.2 S 9 17 5 9 1019.7 1017.9 0.0
23/01:30pm 25.1 22.0 3.8 25 10.8 S 9 19 5 10 1019.8 1018.0 0.0
23/01:00pm 24.7 21.1 3.1 24 10.8 SSE 11 17 6 9 1020.1 1018.3 0.0
23/12:30pm 24.8 20.8 2.9 24 10.9 S 13 20 7 11 1020.5 1018.7 0.0
23/12:00pm 24.2 20.0 3.8 26 10.3 ESE 15 22 8 12 1021.1 1019.3 0.0
23/11:30am 23.7 20.7 4.1 28 9.9 SSE 9 19 5 10 1021.5 1019.7 0.0
23/11:00am 23.6 19.5 4.3 28 9.8 SSE 15 20 8 11 1022.0 1020.2 0.0
23/10:30am 23.4 18.9 4.2 28 9.7 SE 17 24 9 13 1022.5 1020.8 0.0
23/10:00am 22.2 17.7 4.0 30 9.1 SE 17 26 9 14 1022.9 1021.1 0.0
23/09:30am 21.0 16.2 4.6 34 8.2 ESE 19 24 10 13 1023.2 1021.4 0.0
23/09:00am 20.1 15.7 4.9 37 7.6 SE 17 22 9 12 1023.2 1021.4 0.0
23/08:30am 18.5 14.1 5.0 41 6.7 ESE 17 24 9 13 1023.2 1021.4 0.0
23/08:00am 16.1 11.4 5.0 47 5.4 ESE 19 24 10 13 1023.1 1021.3 0.0
23/07:30am 14.0 9.6 4.8 54 4.4 ESE 17 22 9 12 1022.9 1021.1 0.0
23/07:00am 13.0 9.0 4.8 57 3.9 ESE 15 19 8 10 1022.4 1020.7 0.0
23/06:30am 11.1 7.1 4.7 64 3.0 ESE 15 17 8 9 1022.2 1020.5 0.0
23/06:00am 10.6 6.2 4.6 66 2.8 ESE 17 20 9 11 1021.9 1020.1 0.0
23/05:30am 10.9 6.5 4.7 65 2.9 ESE 17 19 9 10 1021.4 1019.6 0.0
23/05:00am 11.3 7.3 4.7 64 3.1 ESE 15 20 8 11 1021.1 1019.3 0.0
23/04:30am 11.5 7.4 4.4 61 3.3 ESE 15 17 8 9 1021.0 1019.2 0.0
23/04:00am 11.9 7.8 4.4 60 3.5 ESE 15 19 8 10 1020.6 1018.9 0.0
23/03:30am 11.7 7.6 4.4 61 3.4 ESE 15 17 8 9 1020.4 1018.6 0.0
23/03:00am 11.8 7.7 4.3 60 3.5 ESE 15 17 8 9 1020.3 1018.5 0.0
23/02:30am 11.9 8.2 4.4 60 3.5 SE 13 13 7 7 1020.3 1018.5 0.0
23/02:00am 12.5 8.8 4.7 59 3.7 SE 13 15 7 8 1020.2 1018.4 0.0
23/01:30am 12.8 9.5 4.5 57 3.9 ESE 11 13 6 7 1020.3 1018.5 0.0
23/01:00am 12.9 9.6 4.7 57 3.9 SE 11 13 6 7 1020.3 1018.5 0.0
23/12:30am 13.9 10.6 4.7 54 4.4 SE 11 15 6 8 1020.4 1018.6 0.0
23/12:00am 14.5 10.8 4.4 50 4.8 ESE 13 13 7 7 1020.4 1018.6 0.0
 
Date/Time
WST
Temp
°C
App
Temp
°C
Dew
Point
°C
Rel
Hum
%
Delta-T
°C
Wind Press
QNH
hPa
Press
MSL
hPa
Rain since
9am
mm
Dir  Spd
km/h
Gust
km/h
Spd
kts
Gust
kts
22/11:30pm 15.5 11.8 4.2 47 5.4 ESE 13 15 7 8 1020.3 1018.5 0.0
22/11:00pm 16.6 12.9 4.2 43 6.0 ESE 13 17 7 9 1020.3 1018.5 0.0
22/10:30pm 16.3 12.6 4.3 45 5.8 E 13 15 7 8 1020.3 1018.5 0.0
22/10:00pm 16.4 13.5 4.7 46 5.7 ESE 9 11 5 6 1020.3 1018.5 0.0
22/09:30pm 16.5 13.6 4.8 46 5.7 ESE 9 9 5 5 1020.3 1018.5 0.0
22/09:00pm 16.7 14.2 4.8 45 5.8 ESE 7 9 4 5 1020.2 1018.4 0.0
22/08:30pm 17.1 15.0 5.7 47 5.7 ESE 6 9 3 5 1020.0 1018.2 0.0
22/08:00pm 17.6 15.4 5.1 43 6.2 ESE 6 9 3 5 1020.0 1018.2 0.0
22/07:30pm 18.1 15.9 5.3 43 6.4 S 6 9 3 5 1019.6 1017.8 0.0
22/07:00pm 19.3 16.7 4.3 37 7.4 SSE 7 9 4 5 1019.3 1017.5 0.0
22/06:30pm 19.1 17.1 6.4 43 6.5 S 6 7 3 4 1018.8 1017.0 0.0
22/06:00pm 20.7 18.0 3.9 33 8.3 SSW 7 9 4 5 1018.3 1016.5 0.0
22/05:30pm 21.9 19.1 3.2 29 9.2 SW 7 9 4 5 1018.0 1016.2 0.0
22/05:00pm 22.8 20.0 2.9 27 9.8 WSW 7 9 4 5 1017.7 1015.9 0.0
22/04:30pm 24.9 21.6 2.5 23 11.1 W 9 13 5 7 1017.6 1015.7 0.0
22/04:00pm 25.8 22.2 0.4 19 12.2 W 9 13 5 7 1017.1 1015.3 0.0
22/03:30pm 26.1 21.6 -0.5 17 12.6 WSW 13 20 7 11 1017.0 1015.2 0.0
22/03:00pm 26.6 20.9 -1.0 16 13.0 W 19 26 10 14 1016.9 1015.1 0.0
22/02:30pm 26.9 22.0 -0.7 16 13.1 W 15 26 8 14 1016.8 1015.0 0.0
22/02:00pm 26.9 21.6 -0.3 17 13.0 W 17 24 9 13 1016.7 1014.9 0.0
22/01:30pm 26.9 21.7 0.1 17 12.9 W 17 28 9 15 1016.7 1014.9 0.0
22/01:00pm 26.3 21.9 0.3 18 12.5 W 13 24 7 13 1016.9 1015.1 0.0
22/12:30pm 26.2 21.9 0.9 19 12.3 SSW 13 22 7 12 1017.3 1015.4 0.0
22/12:00pm 25.8 22.3 1.5 20 11.9 SSW 9 15 5 8 1017.7 1015.9 0.0
22/11:30am 25.2 21.3 1.3 21 11.6 SW 11 20 6 11 1018.1 1016.3 0.0
22/11:00am 24.6 20.8 1.9 22 11.1 WSW 11 22 6 12 1018.4 1016.6 0.0
22/10:30am 24.1 19.9 1.6 23 10.9 S 13 19 7 10 1018.7 1016.9 0.0
22/10:00am 23.5 20.2 2.2 24 10.4 S 9 15 5 8 1018.9 1017.1 0.0
22/09:30am 22.6 19.5 1.1 24 10.2 SSW 7 13 4 7 1018.9 1017.1 0.0
22/09:00am 22.0 18.4 0.7 24 10.0 WSW 9 15 5 8 1019.2 1017.4 0.0
22/08:30am 21.8 18.8 2.0 27 9.5 W 7 9 4 5 1018.9 1017.1 0.0
22/08:00am 19.4 16.9 5.0 38 7.2 NNW 7 13 4 7 1018.6 1016.8 0.0
22/07:30am 15.7 13.5 6.3 53 4.7 SSW 7 11 4 6 1018.4 1016.6 0.0
22/07:00am 15.2 12.8 5.2 51 4.9 WNW 7 9 4 5 1017.6 1015.7 0.0
22/06:30am 14.1 10.7 4.2 51 4.7 NW 11 13 6 7 1017.0 1015.2 0.0
22/06:00am 14.5 11.3 3.1 46 5.3 NNW 9 11 5 6 1016.7 1014.9 0.0
22/05:30am 14.9 11.7 2.8 44 5.6 NNW 9 11 5 6 1016.4 1014.6 0.0
22/05:00am 16.6 12.7 0.9 34 7.1 NNW 11 11 6 6 1016.2 1014.4 0.0
22/04:30am 17.2 13.1 -0.5 30 7.8 NNW 11 11 6 6 1016.0 1014.1 0.0
22/04:00am 17.2 13.1 -0.1 31 7.7 NNW 11 13 6 7 1015.7 1013.8 0.0
22/03:30am 17.4 13.8 0.6 32 7.6 NNW 9 11 5 6 1015.3 1013.5 0.0
22/03:00am 17.5 13.8 2.4 36 7.1 NNW 11 11 6 6 1015.3 1013.5 0.0
22/02:30am 17.5 14.8 3.8 40 6.6 NW 7 9 4 5 1015.1 1013.3 0.0
22/02:00am 17.5 14.9 4.4 42 6.4 NW 7 9 4 5 1015.0 1013.2 0.0
22/01:30am 16.5 14.2 5.7 49 5.4 NW 7 9 4 5 1014.9 1013.1 0.0
22/01:00am 16.9 13.3 5.2 46 5.8 NNW 13 15 7 8 1015.0 1013.2 0.0
22/12:30am 17.0 13.4 5.0 45 5.9 NNW 13 15 7 8 1014.9 1013.1 0.0
22/12:00am 17.5 14.4 5.5 45 6.0 NW 11 13 6 7 1014.8 1013.0 0.0
 
Date/Time
WST
Temp
°C
App
Temp
°C
Dew
Point
°C
Rel
Hum
%
Delta-T
°C
Wind Press
QNH
hPa
Press
MSL
hPa
Rain since
9am
mm
Dir  Spd
km/h
Gust
km/h
Spd
kts
Gust
kts
21/11:30pm 18.6 14.6 4.7 40 6.9 NNW 15 17 8 9 1014.8 1013.0 0.0
21/11:00pm 18.3 14.7 4.8 41 6.7 NW 13 15 7 8 1014.9 1013.1 0.0
21/10:30pm 18.6 15.0 4.9 40 6.8 N 13 15 7 8 1015.0 1013.2 0.0
21/10:00pm 19.3 16.1 4.9 38 7.2 N 11 13 6 7 1015.1 1013.3 0.0
21/09:30pm 18.7 15.5 5.1 40 6.8 NW 11 11 6 6 1015.3 1013.5 0.0
21/09:00pm 18.6 14.5 4.4 39 7.0 WNW 15 22 8 12 1015.2 1013.4 0.0
21/08:30pm 19.9 16.2 4.7 36 7.6 NW 13 17 7 9 1015.1 1013.3 0.0
21/08:00pm 21.0 18.1 4.4 33 8.3 NNW 9 13 5 7 1015.0 1013.2 0.0
21/07:30pm 21.4 17.7 4.5 33 8.5 N 13 19 7 10 1014.6 1012.7 0.0
21/07:00pm 22.8 18.2 3.6 28 9.6 N 17 20 9 11 1014.4 1012.5 0.0
21/06:30pm 22.4 18.6 4.1 30 9.2 N 13 19 7 10 1014.0 1012.1 0.0

Other Formats:

Comma delimited format used in spreadsheet applications
http://www.bom.gov.au/fwo/IDW60801/IDW60801.94461.axf

JavaScript Object Notation format (JSON) in row-major order
http://www.bom.gov.au/fwo/IDW60801/IDW60801.94461.json